Time;durP1;ratioP1;P1;durP2;ratioP2;P2;SDS_P1;SDS_P2;PMS_P1;PMS_P2;Temp;Humidity;BMP_temperature;BMP_pressure;BME280_temperature;BME280_humidity;BME280_pressure;Samples;Min_cycle;Max_cycle;Signal;HPM_P1;HPM_P2
2021/04/18 00:00:17;;;;;;;119.65;52.58;;;;;;;3.54;77.26;97367.53;1786849;78;25813;-79
2021/04/18 00:02:48;;;;;;;113.07;52.73;;;;;;;3.56;77.51;97358.86;1795169;78;25703;-79
2021/04/18 00:05:20;;;;;;;100.78;46.92;;;;;;;3.56;77.51;97358.86;1779980;78;25724;-79
2021/04/18 00:07:48;;;;;;;106.90;52.00;;;;;;;3.55;77.40;97359.36;1797046;78;28596;-79
2021/04/18 00:10:17;;;;;;;110.72;55.28;;;;;;;3.56;77.40;97366.37;1775543;78;26616;-79
2021/04/18 00:12:44;;;;;;;121.07;55.12;;;;;;;3.58;77.43;97364.87;1793884;78;26225;-79
2021/04/18 00:15:15;;;;;;;113.72;53.98;;;;;;;3.56;77.39;97368.20;1795393;78;26440;-79
2021/04/18 00:17:43;;;;;;;114.75;55.25;;;;;;;3.54;77.39;97367.03;1792419;77;25696;-79
2021/04/18 00:20:13;;;;;;;118.87;57.03;;;;;;;3.52;77.41;97370.86;1798337;78;27487;-79
2021/04/18 00:22:42;;;;;;;122.62;57.10;;;;;;;3.51;77.47;97365.19;1814440;78;26463;-79
2021/04/18 00:25:15;;;;;;;124.65;59.98;;;;;;;3.52;77.53;97364.20;1799972;77;25759;-79
2021/04/18 00:27:45;;;;;;;116.05;55.30;;;;;;;3.51;77.56;97366.52;1815007;78;25747;-79
2021/04/18 00:30:17;;;;;;;118.57;50.98;;;;;;;3.50;77.59;97364.89;1806132;78;25729;-79
2021/04/18 00:32:45;;;;;;;114.88;52.35;;;;;;;3.51;77.64;97366.52;1799456;78;33341;-79
2021/04/18 00:35:16;;;;;;;122.58;55.52;;;;;;;3.52;77.72;97361.52;1793953;78;25945;-79
2021/04/18 00:37:44;;;;;;;122.75;55.03;;;;;;;3.54;77.73;97367.53;1799950;78;25817;-79
2021/04/18 00:40:19;;;;;;;122.40;56.50;;;;;;;3.54;77.74;97352.86;1792549;78;25703;-79
2021/04/18 00:42:47;;;;;;;127.17;58.08;;;;;;;3.53;77.74;97357.86;1798324;78;25679;-79
2021/04/18 00:45:16;;;;;;;133.70;56.70;;;;;;;3.53;77.80;97357.86;1795892;78;27660;-79
2021/04/18 00:47:47;;;;;;;126.87;58.98;;;;;;;3.52;77.88;97358.86;1792498;78;25771;-79
2021/04/18 00:50:20;;;;;;;138.77;60.33;;;;;;;3.52;77.94;97361.52;1794258;78;25735;-79
2021/04/18 00:52:47;;;;;;;122.58;54.67;;;;;;;3.51;77.98;97354.02;1798930;78;25768;-79
2021/04/18 00:55:15;;;;;;;127.87;53.50;;;;;;;3.51;77.99;97359.85;1798664;78;25794;-79
2021/04/18 00:57:43;;;;;;;120.30;53.17;;;;;;;3.52;78.00;97364.20;1815292;78;28902;-79
2021/04/18 01:00:11;;;;;;;126.50;55.40;;;;;;;3.51;78.02;97359.36;1805931;78;25741;-79
2021/04/18 01:02:39;;;;;;;126.12;54.03;;;;;;;3.52;78.03;97365.03;1796588;78;25773;-79
2021/04/18 01:05:08;;;;;;;129.95;52.33;;;;;;;3.52;78.01;97357.52;1800638;78;25735;-79
2021/04/18 01:07:36;;;;;;;130.82;54.98;;;;;;;3.52;78.04;97358.86;1802097;78;25779;-79
2021/04/18 01:10:08;;;;;;;127.12;56.18;;;;;;;3.52;78.09;97354.85;1792548;78;27487;-79
2021/04/18 01:12:35;;;;;;;134.40;56.30;;;;;;;3.53;78.13;97357.86;1762645;80;25720;-79
2021/04/18 01:15:05;;;;;;;130.20;54.60;;;;;;;3.53;78.09;97357.86;1792528;78;25744;-79
2021/04/18 01:17:33;;;;;;;143.82;59.03;;;;;;;3.51;78.09;97358.52;1812253;78;25522;-79
2021/04/18 01:20:01;;;;;;;129.75;57.27;;;;;;;3.51;78.14;97357.19;1800340;78;25791;-79
2021/04/18 01:22:28;;;;;;;138.32;56.83;;;;;;;3.48;78.15;97358.88;1775595;78;27553;-79
2021/04/18 01:24:56;;;;;;;135.90;57.43;;;;;;;3.48;78.14;97358.88;1779335;78;26073;-79
2021/04/18 01:27:23;;;;;;;137.37;55.43;;;;;;;3.48;78.19;97358.88;1791084;78;25815;-79
2021/04/18 01:29:52;;;;;;;123.60;51.23;;;;;;;3.47;78.22;97361.22;1775559;78;25722;-79
2021/04/18 01:32:22;;;;;;;117.57;49.15;;;;;;;3.45;78.24;97357.38;1775656;78;25819;-79
2021/04/18 01:34:50;;;;;;;132.10;52.90;;;;;;;3.44;78.26;97353.03;1775551;78;28479;-79
2021/04/18 01:37:20;;;;;;;126.55;51.70;;;;;;;3.44;78.27;97352.20;1802724;78;25806;-79
2021/04/18 01:39:49;;;;;;;132.75;53.73;;;;;;;3.44;78.33;97352.20;1784729;78;25790;-79
2021/04/18 01:42:19;;;;;;;129.95;53.40;;;;;;;3.44;78.35;97346.86;1786672;78;25715;-79
2021/04/18 01:44:47;;;;;;;130.37;52.33;;;;;;;3.44;78.37;97347.70;1809685;78;25741;-79
2021/04/18 01:47:14;;;;;;;128.72;53.40;;;;;;;3.43;78.44;97350.03;1783637;78;27689;-79
2021/04/18 01:49:42;;;;;;;126.50;54.20;;;;;;;3.41;78.46;97349.86;1802740;78;25733;-79
2021/04/18 01:52:09;;;;;;;127.60;49.38;;;;;;;3.42;78.49;97348.86;1780304;78;25757;-79
2021/04/18 01:54:37;;;;;;;123.78;49.73;;;;;;;3.43;78.56;97347.86;1775449;78;25738;-79
2021/04/18 01:57:04;;;;;;;130.52;52.03;;;;;;;3.43;78.55;97349.20;1775638;78;25754;-79
2021/04/18 01:59:32;;;;;;;116.55;47.75;;;;;;;3.43;78.58;97346.03;1794589;78;27492;-79
2021/04/18 02:02:09;;;;;;;135.37;50.38;;;;;;;3.42;78.58;97347.03;1792708;78;26121;-79
2021/04/18 02:04:37;;;;;;;128.30;48.92;;;;;;;3.42;78.57;97348.86;1794891;78;26277;-79
2021/04/18 02:07:06;;;;;;;129.85;51.00;;;;;;;3.40;78.57;97346.86;1775702;78;25704;-79
2021/04/18 02:09:35;;;;;;;133.22;47.95;;;;;;;3.40;78.59;97342.36;1775640;78;25833;-79
2021/04/18 02:12:07;;;;;;;145.60;53.58;;;;;;;3.38;78.56;97339.02;1800186;78;27466;-79
2021/04/18 02:14:35;;;;;;;145.22;55.40;;;;;;;3.39;78.60;97343.85;1779658;78;31130;-79
2021/04/18 02:17:05;;;;;;;140.97;54.67;;;;;;;3.38;78.64;97341.69;1780879;78;25747;-79
2021/04/18 02:19:33;;;;;;;144.28;54.23;;;;;;;3.38;78.67;97340.35;1792565;78;26422;-79
2021/04/18 02:22:01;;;;;;;132.37;51.33;;;;;;;3.39;78.68;97337.19;1813168;78;26423;-79
2021/04/18 02:24:29;;;;;;;140.28;54.10;;;;;;;3.37;78.69;97334.71;1786881;78;28407;-79
2021/04/18 02:26:57;;;;;;;131.30;50.73;;;;;;;3.36;78.71;97331.70;1801660;78;25819;-79
2021/04/18 02:29:24;;;;;;;127.82;50.35;;;;;;;3.36;78.74;97332.20;1799862;78;25680;-79
2021/04/18 02:31:52;;;;;;;131.80;51.68;;;;;;;3.33;78.79;97332.03;1786079;78;25861;-79
2021/04/18 02:34:19;;;;;;;133.30;49.80;;;;;;;3.35;78.87;97325.20;1781991;78;26271;-80
2021/04/18 02:36:47;;;;;;;134.12;52.62;;;;;;;3.38;78.89;97328.34;1788120;78;27765;-79
2021/04/18 02:39:14;;;;;;;136.37;51.00;;;;;;;3.37;78.87;97325.37;1775664;78;26148;-79
2021/04/18 02:41:42;;;;;;;143.95;54.63;;;;;;;3.31;78.81;97330.53;1783631;78;25761;-79
2021/04/18 02:44:09;;;;;;;141.45;54.98;;;;;;;3.32;78.95;97324.19;1790698;78;26456;-79
2021/04/18 02:46:36;;;;;;;136.12;53.80;;;;;;;3.32;79.04;97323.70;1810633;78;26356;-79
2021/04/18 02:49:04;;;;;;;127.10;51.10;;;;;;;3.34;79.10;97320.36;1785622;78;27741;-79
2021/04/18 02:51:32;;;;;;;130.72;49.08;;;;;;;3.34;79.07;97317.70;1793964;78;26098;-79
2021/04/18 02:54:00;;;;;;;128.78;48.02;;;;;;;3.35;79.02;97325.20;1796103;78;25774;-79
2021/04/18 02:56:28;;;;;;;132.20;49.80;;;;;;;3.34;79.04;97326.20;1812507;78;25816;-79
2021/04/18 02:58:56;;;;;;;127.38;49.25;;;;;;;3.36;79.06;97318.87;1782769;78;25738;-79
2021/04/18 03:01:23;;;;;;;120.62;46.92;;;;;;;3.35;79.09;97322.03;1791625;78;27477;-79
2021/04/18 03:03:50;;;;;;;116.80;47.25;;;;;;;3.34;79.06;97311.52;1797048;78;25773;-80
2021/04/18 03:06:18;;;;;;;116.05;46.65;;;;;;;3.34;79.07;97312.86;1785698;78;25733;-80
2021/04/18 03:08:45;;;;;;;115.03;46.20;;;;;;;3.35;79.08;97307.36;1796985;78;26319;-79
2021/04/18 03:11:13;;;;;;;119.80;46.30;;;;;;;3.36;79.07;97306.86;1792590;78;25765;-79
2021/04/18 03:13:40;;;;;;;110.83;46.25;;;;;;;3.35;79.04;97306.02;1802149;78;27424;-79
2021/04/18 03:16:08;;;;;;;108.70;42.95;;;;;;;3.35;79.02;97297.19;1784863;78;26155;-79
2021/04/18 03:18:35;;;;;;;105.72;44.18;;;;;;;3.34;79.04;97308.36;1775622;78;25800;-79
2021/04/18 03:21:04;;;;;;;114.08;43.65;;;;;;;3.32;79.07;97298.85;1784094;78;25795;-79
2021/04/18 03:23:31;;;;;;;117.72;47.73;;;;;;;3.32;79.05;97304.19;1792863;78;25839;-79
2021/04/18 03:25:59;;;;;;;115.32;48.08;;;;;;;3.33;79.10;97301.35;1805583;78;27497;-79
2021/04/18 03:28:26;;;;;;;107.47;46.25;;;;;;;3.34;79.11;97298.19;1796681;78;26301;-79
2021/04/18 03:30:54;;;;;;;107.75;48.17;;;;;;;3.33;79.11;97296.52;1793149;78;25793;-80
2021/04/18 03:33:22;;;;;;;106.47;46.20;;;;;;;3.33;79.09;97299.19;1792913;78;25753;-79
2021/04/18 03:35:49;;;;;;;116.15;47.75;;;;;;;3.31;79.11;97299.84;1792887;78;25714;-79
2021/04/18 03:38:17;;;;;;;112.45;46.55;;;;;;;3.29;79.12;97302.68;1792755;78;28971;-80
2021/04/18 03:40:45;;;;;;;113.47;46.77;;;;;;;3.30;79.19;97296.84;1792765;78;26120;-80
2021/04/18 03:43:13;;;;;;;106.67;44.25;;;;;;;3.29;79.19;97293.84;1792763;78;25990;-80
2021/04/18 03:45:40;;;;;;;115.97;45.25;;;;;;;3.29;79.18;97303.18;1792813;78;25746;-79
2021/04/18 03:48:09;;;;;;;120.10;47.00;;;;;;;3.28;79.18;97302.34;1797138;78;25772;-80
2021/04/18 03:50:36;;;;;;;118.47;47.03;;;;;;;3.30;79.18;97299.52;1793031;78;28571;-79
2021/04/18 03:53:04;;;;;;;120.77;46.18;;;;;;;3.28;79.17;97306.84;1792693;78;26324;-80
2021/04/18 03:55:31;;;;;;;114.28;47.45;;;;;;;3.29;79.21;97299.17;1792885;78;25798;-80
2021/04/18 03:57:59;;;;;;;116.55;45.95;;;;;;;3.29;79.23;97313.85;1808778;78;25867;-79
2021/04/18 04:00:26;;;;;;;125.58;50.48;;;;;;;3.28;79.28;97307.68;1793037;78;26278;-80
2021/04/18 04:02:54;;;;;;;122.10;49.98;;;;;;;3.31;79.28;97307.85;1792828;78;27493;-80
2021/04/18 04:05:21;;;;;;;113.90;49.65;;;;;;;3.31;79.27;97311.85;1792819;78;25781;-80
2021/04/18 04:07:49;;;;;;;105.90;44.77;;;;;;;3.30;79.21;97306.19;1815702;78;25725;-80
2021/04/18 04:10:16;;;;;;;100.87;44.88;;;;;;;3.31;79.19;97306.52;1792880;78;26302;-79
2021/04/18 04:12:43;;;;;;;116.37;49.70;;;;;;;3.30;79.22;97310.19;1793067;78;26289;-79
2021/04/18 04:15:12;;;;;;;136.18;55.43;;;;;;;3.31;79.25;97304.69;1792837;78;28547;-80
2021/04/18 04:17:39;;;;;;;117.85;47.38;;;;;;;3.29;79.29;97300.02;1792678;78;26257;-80
2021/04/18 04:20:08;;;;;;;105.70;44.95;;;;;;;3.30;79.34;97307.52;1810045;78;25858;-79
2021/04/18 04:22:36;;;;;;;119.65;50.33;;;;;;;3.30;79.30;97310.19;1791462;78;26351;-80
2021/04/18 04:25:04;;;;;;;112.12;45.90;;;;;;;3.30;79.39;97309.69;1787146;78;25960;-80
2021/04/18 04:27:32;;;;;;;109.32;45.80;;;;;;;3.32;79.44;97312.19;1787206;78;28662;-78
2021/04/18 04:29:59;;;;;;;103.83;42.43;;;;;;;3.33;79.46;97307.19;1787447;78;25723;-79
2021/04/18 04:32:26;;;;;;;99.62;41.83;;;;;;;3.35;79.51;97302.52;1812879;78;25714;-79
2021/04/18 04:34:55;;;;;;;103.78;42.70;;;;;;;3.35;79.52;97303.36;1807077;78;25799;-79
2021/04/18 04:37:23;;;;;;;110.32;45.12;;;;;;;3.37;79.58;97302.69;1787949;78;25312;-79
2021/04/18 04:39:50;;;;;;;104.70;43.17;;;;;;;3.38;79.54;97303.00;1809216;78;27685;-79
2021/04/18 04:42:18;;;;;;;116.00;46.65;;;;;;;3.40;79.54;97301.50;1787490;78;26401;-79
2021/04/18 04:44:45;;;;;;;104.10;43.17;;;;;;;3.40;79.54;97302.83;1787558;78;25847;-79
2021/04/18 04:47:12;;;;;;;105.27;41.98;;;;;;;3.42;79.56;97299.00;1787645;78;26235;-80
2021/04/18 04:49:40;;;;;;;100.97;39.70;;;;;;;3.44;79.58;97301.50;1788017;78;25727;-79
2021/04/18 04:52:09;;;;;;;102.85;41.75;;;;;;;3.45;79.64;97301.84;1787559;78;28417;-79
2021/04/18 04:54:40;;;;;;;105.97;41.70;;;;;;;3.45;79.65;97302.67;1790638;78;25822;-79
2021/04/18 04:57:08;;;;;;;133.57;50.78;;;;;;;3.44;79.57;97298.33;1805622;78;25747;-79
2021/04/18 04:59:35;;;;;;;117.42;48.83;;;;;;;3.39;79.58;97298.49;1798315;78;25534;-79
2021/04/18 05:02:03;;;;;;;118.02;48.02;;;;;;;3.37;79.62;97295.19;1798923;78;25777;-79
2021/04/18 05:04:30;;;;;;;128.47;48.00;;;;;;;3.39;79.73;97295.33;1787401;78;27482;-79
2021/04/18 05:06:58;;;;;;;126.78;48.70;;;;;;;3.40;79.78;97294.83;1787417;78;26229;-79
2021/04/18 05:09:26;;;;;;;120.47;47.00;;;;;;;3.43;79.84;97300.67;1787390;78;25679;-79
2021/04/18 05:11:55;;;;;;;117.70;46.40;;;;;;;3.44;79.85;97297.00;1787428;78;25756;-79
2021/04/18 05:14:22;;;;;;;118.40;50.08;;;;;;;3.47;79.87;97298.50;1787530;78;26074;-79
2021/04/18 05:16:50;;;;;;;122.40;49.13;;;;;;;3.50;79.88;97296.84;1787413;78;27484;-79
2021/04/18 05:19:18;;;;;;;129.32;49.13;;;;;;;3.52;79.88;97302.81;1787344;78;25637;-79
2021/04/18 05:21:45;;;;;;;128.30;52.43;;;;;;;3.52;79.87;97296.97;1789889;78;25898;-79
2021/04/18 05:24:13;;;;;;;126.87;49.33;;;;;;;3.54;79.88;97300.81;1792899;78;25762;-79
2021/04/18 05:26:41;;;;;;;120.77;47.95;;;;;;;3.58;79.88;97300.81;1792834;78;25692;-79
2021/04/18 05:29:08;;;;;;;124.80;50.08;;;;;;;3.60;79.89;97295.64;1792743;78;27715;-79
2021/04/18 05:31:35;;;;;;;119.37;48.90;;;;;;;3.65;79.91;97297.78;1822335;78;26271;-79
2021/04/18 05:34:03;;;;;;;123.60;47.75;;;;;;;3.70;79.99;97299.45;1808748;78;25275;-79
2021/04/18 05:36:31;;;;;;;133.03;50.48;;;;;;;3.75;79.92;97299.75;1815849;78;26460;-79
2021/04/18 05:38:59;;;;;;;114.85;48.70;;;;;;;3.79;79.89;97302.92;1793004;78;25949;-79
2021/04/18 05:41:26;;;;;;;122.50;49.08;;;;;;;3.81;79.90;97299.08;1793015;78;28449;-79
2021/04/18 05:43:54;;;;;;;128.38;49.38;;;;;;;3.86;79.85;97303.42;1792840;78;25739;-79
2021/04/18 05:46:21;;;;;;;111.00;44.18;;;;;;;3.87;79.78;97300.22;1793082;78;25896;-79
2021/04/18 05:48:48;;;;;;;106.60;45.85;;;;;;;3.81;79.66;97304.92;1792951;78;26028;-79
2021/04/18 05:51:16;;;;;;;102.22;43.45;;;;;;;3.81;79.67;97300.42;1807208;78;25840;-79
2021/04/18 05:53:43;;;;;;;103.58;44.88;;;;;;;3.85;79.74;97304.42;1795716;78;27674;-79
2021/04/18 05:56:11;;;;;;;100.75;43.65;;;;;;;3.88;79.76;97304.55;1792909;78;25985;-79
2021/04/18 05:58:38;;;;;;;101.90;47.23;;;;;;;3.93;79.78;97305.72;1792907;78;25764;-79
2021/04/18 06:01:05;;;;;;;101.10;46.53;;;;;;;3.99;79.81;97305.02;1792902;78;25765;-79
2021/04/18 06:03:33;;;;;;;120.57;52.70;;;;;;;4.04;79.82;97303.67;1793088;78;25766;-79
2021/04/18 06:06:00;;;;;;;111.55;51.58;;;;;;;4.08;79.86;97307.67;1815844;78;28255;-80
2021/04/18 06:08:28;;;;;;;126.33;54.18;;;;;;;4.06;79.91;97310.52;1792955;78;26391;-79
2021/04/18 06:10:55;;;;;;;126.65;54.75;;;;;;;4.13;79.95;97313.31;1792948;78;25732;-79
2021/04/18 06:13:23;;;;;;;117.33;50.08;;;;;;;4.19;79.95;97309.96;1792913;78;26267;-79
2021/04/18 06:15:50;;;;;;;112.12;50.43;;;;;;;4.27;79.88;97308.58;1793005;78;25640;-79
2021/04/18 06:18:17;;;;;;;107.27;48.63;;;;;;;4.32;79.87;97309.73;1793000;78;28437;-79
2021/04/18 06:20:45;;;;;;;111.70;47.25;;;;;;;4.41;79.85;97313.19;1792785;78;25288;-79
2021/04/18 06:23:12;;;;;;;112.03;47.70;;;;;;;4.44;79.78;97319.53;1792955;77;25739;-79
2021/04/18 06:25:40;;;;;;;112.85;45.83;;;;;;;4.44;79.70;97322.70;1792917;78;25505;-79
2021/04/18 06:28:07;;;;;;;107.40;49.38;;;;;;;4.50;79.81;97316.14;1815902;78;26089;-79
2021/04/18 06:30:35;;;;;;;105.07;47.73;;;;;;;4.60;79.81;97323.94;1792966;78;27421;-79
2021/04/18 06:33:03;;;;;;;100.38;44.63;;;;;;;4.70;79.73;97316.55;1796028;78;26294;-79
2021/04/18 06:35:30;;;;;;;99.83;46.37;;;;;;;4.78;79.71;97315.66;1802354;78;25823;-79
2021/04/18 06:37:58;;;;;;;96.85;46.23;;;;;;;4.85;79.57;97316.59;1825488;78;25380;-79
2021/04/18 06:40:26;;;;;;;87.08;43.13;;;;;;;4.92;79.46;97314.89;1797542;78;25718;-79
2021/04/18 06:42:55;;;;;;;84.95;41.33;;;;;;;4.99;79.44;97318.00;1808152;78;27495;-79
2021/04/18 06:45:23;;;;;;;87.65;39.65;;;;;;;4.96;79.11;97323.70;1799346;78;25723;-80
2021/04/18 06:47:51;;;;;;;86.17;40.90;;;;;;;4.95;79.05;97326.05;1792916;78;25730;-79
2021/04/18 06:50:19;;;;;;;85.55;40.40;;;;;;;4.99;79.01;97319.84;1792984;78;25786;-79
2021/04/18 06:52:48;;;;;;;89.67;42.75;;;;;;;4.99;79.02;97315.83;1792861;78;26235;-79
2021/04/18 06:55:17;;;;;;;81.50;40.95;;;;;;;5.08;79.15;97320.10;1792934;78;27491;-79
2021/04/18 06:57:44;;;;;;;79.53;38.92;;;;;;;5.18;79.11;97318.55;1792833;78;26826;-79
2021/04/18 07:00:14;;;;;;;68.17;37.80;;;;;;;5.23;78.99;97314.30;1792907;78;25783;-79
2021/04/18 07:02:42;;;;;;;76.05;39.92;;;;;;;5.27;78.85;97315.62;1792884;78;25675;-79
2021/04/18 07:05:16;;;;;;;69.82;37.13;;;;;;;5.33;78.80;97318.06;1792990;78;25795;-79
2021/04/18 07:07:48;;;;;;;67.30;37.28;;;;;;;5.36;78.65;97318.54;1792957;78;27493;-79
2021/04/18 07:10:30;;;;;;;59.33;32.63;;;;;;;5.38;78.50;97319.20;1793138;78;25728;-79
2021/04/18 07:13:08;;;;;;;;;;;;;;;5.44;78.42;97318.97;1795594;78;25712;-79
2021/04/18 07:15:40;;;;;;;46.90;26.10;;;;;;;5.51;78.31;97321.77;1792976;78;25590;-79
2021/04/18 07:18:08;;;;;;;45.60;25.65;;;;;;;5.51;78.06;97316.41;1793305;78;25752;-79
2021/04/18 07:23:34;;;;;;;44.83;26.25;;;;;;;5.66;77.81;97318.61;1857873;76;25664;-77
2021/04/18 07:26:27;;;;;;;47.78;27.37;;;;;;;5.62;77.61;97322.66;1834829;77;25749;-80
2021/04/18 07:29:19;;;;;;;39.53;23.47;;;;;;;5.60;77.47;97321.50;1835811;77;27543;-80
2021/04/18 07:31:48;;;;;;;46.20;25.45;;;;;;;5.64;77.27;97325.48;1843021;77;26091;-80
2021/04/18 07:34:22;;;;;;;45.58;25.23;;;;;;;5.67;77.17;97331.83;1805190;77;25695;-80
2021/04/18 07:36:53;;;;;;;40.85;23.50;;;;;;;5.72;77.08;97328.08;1850118;77;25678;-79
2021/04/18 07:39:21;;;;;;;32.07;19.30;;;;;;;5.79;76.95;97332.21;1849739;77;25791;-80
2021/04/18 07:41:53;;;;;;;28.40;18.27;;;;;;;5.87;76.56;97326.76;1821866;77;27578;-79
2021/04/18 07:44:21;;;;;;;25.25;16.17;;;;;;;5.90;76.24;97318.39;1837328;77;26065;-80
2021/04/18 07:46:52;;;;;;;25.57;16.12;;;;;;;5.97;75.86;97321.98;1846830;77;25696;-80
2021/04/18 07:49:21;;;;;;;29.95;18.07;;;;;;;6.09;75.89;97319.67;1835850;77;25728;-79
2021/04/18 07:51:50;;;;;;;31.07;17.52;;;;;;;6.27;75.84;97322.82;1824556;77;25856;-80
2021/04/18 07:54:19;;;;;;;29.20;17.25;;;;;;;6.45;75.64;97318.39;1833564;77;28481;-80
2021/04/18 07:56:49;;;;;;;26.10;16.50;;;;;;;6.62;75.38;97317.17;1828335;77;25827;-80
2021/04/18 07:59:21;;;;;;;22.27;14.10;;;;;;;6.74;75.07;97314.31;1828555;77;25791;-80
2021/04/18 08:01:48;;;;;;;24.10;14.85;;;;;;;6.80;74.55;97316.73;1852396;77;25765;-81
2021/04/18 08:04:17;;;;;;;23.80;14.53;;;;;;;6.87;74.57;97313.62;1824342;77;26065;-81
2021/04/18 08:06:45;;;;;;;19.60;12.25;;;;;;;6.94;74.15;97314.52;1799061;77;28512;-80
2021/04/18 08:09:22;;;;;;;21.73;13.32;;;;;;;6.99;74.06;97313.96;1818640;77;25830;-80
2021/04/18 08:12:15;;;;;;;21.25;12.58;;;;;;;7.07;73.77;97311.14;1839848;77;25705;-80
2021/04/18 08:14:49;;;;;;;20.45;12.82;;;;;;;7.23;73.59;97300.16;1796430;77;25716;-80
2021/04/18 08:17:19;;;;;;;21.02;13.58;;;;;;;7.50;73.37;97302.02;1802156;77;25844;-80
2021/04/18 08:20:00;;;;;;;19.12;11.73;;;;;;;7.65;72.84;97297.91;1818822;77;28337;-80
2021/04/18 08:22:58;;;;;;;39.83;18.02;;;;;;;7.71;72.61;97300.33;1793447;77;25699;-80
2021/04/18 08:25:26;;;;;;;26.40;15.55;;;;;;;7.56;72.47;97292.36;1786334;79;25801;-80
2021/04/18 08:28:08;;;;;;;31.00;18.35;;;;;;;7.43;72.33;97298.45;1787958;79;26175;-81
2021/04/18 08:31:03;;;;;;;21.57;13.70;;;;;;;7.42;72.34;97303.52;1788823;78;33912;-80
2021/04/18 08:33:50;;;;;;;19.42;11.93;;;;;;;7.51;72.20;97292.94;1772638;78;27548;-80
2021/04/18 08:36:31;;;;;;;17.98;10.82;;;;;;;7.64;71.72;97298.09;1777840;79;25631;-80
2021/04/18 08:39:06;;;;;;;15.93;11.45;;;;;;;7.75;71.57;97297.04;1764592;79;25865;-80
2021/04/18 08:41:48;;;;;;;17.20;10.93;;;;;;;7.84;71.28;97292.37;1774613;79;25753;-81
2021/04/18 08:44:42;;;;;;;21.30;14.70;;;;;;;7.92;71.00;97285.48;1778004;79;26122;-81
2021/04/18 08:47:13;;;;;;;21.80;13.75;;;;;;;7.89;71.40;97275.12;1776909;79;27490;-80
2021/04/18 08:49:51;;;;;;;21.87;13.93;;;;;;;7.79;70.69;97295.63;1777615;79;25743;-80
2021/04/18 08:52:25;;;;;;;20.75;12.75;;;;;;;7.78;70.29;97298.00;1797480;78;25718;-80
2021/04/18 08:54:57;;;;;;;16.45;11.15;;;;;;;7.82;70.21;97295.25;1775496;78;25779;-80
2021/04/18 08:57:29;;;;;;;21.75;13.60;;;;;;;7.91;70.14;97291.37;1765422;79;25750;-81
2021/04/18 09:00:12;;;;;;;27.73;16.73;;;;;;;8.07;70.24;97290.23;1797419;79;27500;-81
2021/04/18 09:02:40;;;;;;;29.75;17.20;;;;;;;8.23;70.42;97295.27;1791108;78;25754;-80
2021/04/18 09:05:14;;;;;;;41.70;22.87;;;;;;;8.37;69.93;97289.47;1801412;79;25712;-81
2021/04/18 09:07:44;;;;;;;34.48;19.67;;;;;;;8.50;70.05;97287.34;1769196;79;35018;-81
2021/04/18 09:10:13;;;;;;;41.25;27.77;;;;;;;8.48;69.96;97269.23;1785859;79;25745;-80
2021/04/18 09:12:41;;;;;;;23.18;15.60;;;;;;;8.67;69.55;97287.32;1805769;79;27498;-81
2021/04/18 09:15:10;;;;;;;23.40;14.80;;;;;;;8.78;69.59;97283.20;1752377;80;25867;-81
2021/04/18 09:17:41;;;;;;;32.53;18.67;;;;;;;8.82;68.78;97277.71;1783425;79;25946;-82
2021/04/18 09:20:11;;;;;;;24.23;15.68;;;;;;;8.96;68.96;97279.41;1801353;79;26167;-81
2021/04/18 09:22:41;;;;;;;32.83;17.57;;;;;;;9.12;68.76;97270.95;1819036;77;25785;-81
2021/04/18 09:25:14;;;;;;;34.15;18.87;;;;;;;9.24;68.44;97279.25;1855358;77;27472;-81
2021/04/18 09:27:45;;;;;;;22.40;14.83;;;;;;;9.28;68.07;97276.47;1855290;77;25783;-80
2021/04/18 09:30:23;;;;;;;26.30;16.30;;;;;;;9.28;67.84;97271.91;1854756;77;25747;-81
2021/04/18 09:32:54;;;;;;;25.45;15.50;;;;;;;9.28;67.40;97277.81;1830773;77;26082;-80
2021/04/18 09:35:25;;;;;;;33.58;18.50;;;;;;;9.29;67.20;97268.70;1833691;77;25322;-81
2021/04/18 09:38:03;;;;;;;86.70;38.05;;;;;;;9.28;67.11;97275.13;1855222;77;27483;-81
2021/04/18 09:40:38;;;;;;;28.32;17.40;;;;;;;9.29;67.13;97275.44;1855210;77;25648;-81
2021/04/18 09:43:07;;;;;;;27.13;17.62;;;;;;;9.34;67.03;97271.58;1855102;77;25732;-81
2021/04/18 09:45:36;;;;;;;49.10;30.55;;;;;;;9.42;66.80;97275.41;1855098;77;25735;-81
2021/04/18 09:48:19;;;;;;;32.03;18.75;;;;;;;9.54;66.83;97274.30;1855245;77;25764;-81
2021/04/18 09:51:04;;;;;;;26.45;18.55;;;;;;;9.65;66.67;97274.50;1855114;77;27483;-81
2021/04/18 09:53:32;;;;;;;22.45;14.55;;;;;;;9.73;66.46;97276.97;1831436;77;26059;-81
2021/04/18 09:56:07;;;;;;;27.37;15.30;;;;;;;9.81;66.26;97277.26;1855188;77;25785;-80
2021/04/18 09:58:40;;;;;;;46.53;21.80;;;;;;;9.84;66.00;97281.41;1834297;77;26083;-82
2021/04/18 10:01:33;;;;;;;23.05;14.18;;;;;;;9.87;65.92;97273.74;1854011;77;25752;-81
2021/04/18 10:04:01;;;;;;;20.35;14.23;;;;;;;9.88;65.08;97279.96;1830044;77;28873;-81
2021/04/18 10:06:47;;;;;;;22.25;15.40;;;;;;;9.83;64.86;97274.36;1854733;77;25767;-81
2021/04/18 10:09:15;;;;;;;22.70;14.85;;;;;;;9.88;65.12;97274.05;1844320;77;25788;-81
2021/04/18 10:12:00;;;;;;;23.25;14.30;;;;;;;9.98;64.75;97273.61;1835450;77;25765;-81
2021/04/18 10:14:28;;;;;;;22.22;15.13;;;;;;;10.03;64.40;97272.44;1853761;76;25805;-79
2021/04/18 10:16:55;;;;;;;22.13;15.80;;;;;;;10.14;64.45;97277.22;1845739;77;27526;-80
2021/04/18 10:19:25;;;;;;;18.07;14.03;;;;;;;10.20;63.96;97271.51;1810974;77;25333;-80
2021/04/18 10:22:09;;;;;;;25.15;15.60;;;;;;;10.31;63.96;97266.28;1846809;77;26319;-80
2021/04/18 10:24:41;;;;;;;26.15;17.10;;;;;;;10.57;64.24;97264.52;1821492;77;26138;-80
2021/04/18 10:27:12;;;;;;;22.70;16.12;;;;;;;10.82;63.99;97273.53;1826363;77;25834;-80
2021/04/18 10:29:41;;;;;;;24.30;18.25;;;;;;;10.92;63.63;97267.66;1821510;77;27570;-80
2021/04/18 10:32:09;;;;;;;21.33;15.53;;;;;;;10.97;63.23;97265.98;1821391;77;25687;-81
2021/04/18 10:34:37;;;;;;;20.70;15.45;;;;;;;10.97;62.75;97263.28;1821421;77;25655;-81
2021/04/18 10:37:06;;;;;;;21.82;14.33;;;;;;;10.93;62.63;97263.39;1821599;77;25778;-81
2021/04/18 10:39:34;;;;;;;22.45;15.50;;;;;;;10.99;62.51;97263.86;1821701;77;25700;-81
2021/04/18 10:42:02;;;;;;;20.10;13.45;;;;;;;11.10;62.39;97267.77;1821545;77;28418;-80
2021/04/18 10:44:29;;;;;;;21.20;14.40;;;;;;;11.22;62.18;97277.35;1836909;77;26466;-80
2021/04/18 10:47:01;;;;;;;20.60;13.32;;;;;;;11.18;61.50;97271.55;1853744;77;25699;-81
2021/04/18 10:49:30;;;;;;;19.23;13.87;;;;;;;11.18;61.28;97271.03;1830190;77;25687;-79
2021/04/18 10:51:58;;;;;;;21.70;13.60;;;;;;;11.23;60.95;97262.80;1821626;77;25797;-80
2021/04/18 10:54:26;;;;;;;19.62;14.65;;;;;;;11.30;60.98;97260.86;1821662;77;28413;-80
2021/04/18 10:56:55;;;;;;;19.60;15.00;;;;;;;11.50;60.94;97249.36;1821470;77;26208;-81
2021/04/18 10:59:23;;;;;;;22.27;15.20;;;;;;;11.62;60.65;97261.11;1831114;77;27064;-80
2021/04/18 11:01:52;;;;;;;71.15;34.30;;;;;;;11.60;60.27;97260.50;1855125;77;25804;-80
2021/04/18 11:04:20;;;;;;;27.50;17.40;;;;;;;11.54;60.76;97264.10;1831537;77;25939;-80
2021/04/18 11:06:48;;;;;;;22.27;15.15;;;;;;;11.51;60.61;97263.19;1855144;77;27476;-80
2021/04/18 11:09:16;;;;;;;23.20;14.70;;;;;;;11.39;60.44;97266.30;1830074;76;26120;-80
2021/04/18 11:11:44;;;;;;;23.20;16.00;;;;;;;11.28;60.43;97268.36;1852228;77;25768;-80
2021/04/18 11:14:12;;;;;;;36.48;27.02;;;;;;;11.20;60.59;97270.81;1852204;77;25700;-80
2021/04/18 11:16:39;;;;;;;32.90;22.00;;;;;;;11.09;60.64;97269.64;1855292;77;26414;-80
2021/04/18 11:19:07;;;;;;;32.63;23.02;;;;;;;11.02;60.63;97276.94;1855205;77;26832;-80
2021/04/18 11:21:35;;;;;;;33.38;22.13;;;;;;;10.93;60.82;97269.31;1845078;77;25726;-80
2021/04/18 11:24:03;;;;;;;39.73;23.87;;;;;;;10.89;60.98;97273.48;1812955;77;25756;-79
2021/04/18 11:26:31;;;;;;;34.43;22.67;;;;;;;10.77;60.55;97269.29;1816536;77;25748;-79
2021/04/18 11:28:59;;;;;;;28.67;20.35;;;;;;;10.68;61.09;97266.55;1842654;77;25899;-80
2021/04/18 11:31:26;;;;;;;29.77;19.75;;;;;;;10.58;61.06;97262.13;1824423;77;27537;-80
2021/04/18 11:33:54;;;;;;;28.75;20.20;;;;;;;10.28;61.09;97269.39;1842535;77;25706;-81